createdAt,value
2022-09-21T06:14:45.567Z,0.44
2022-09-21T06:24:45.618Z,2.33
2022-09-21T06:34:45.429Z,2.84
2022-09-21T06:44:45.545Z,4.33
2022-09-21T06:54:45.597Z,5.04
2022-09-21T07:04:45.525Z,4.73
2022-09-21T07:14:45.567Z,5.31
2022-09-21T07:24:45.499Z,5.04
2022-09-21T07:34:45.787Z,4.69
2022-09-21T07:44:45.588Z,3.76
2022-09-21T07:54:45.773Z,4.01
2022-09-21T08:04:45.529Z,3.49
2022-09-21T08:14:45.700Z,4.16
2022-09-21T08:24:45.610Z,3.62
2022-09-21T08:34:45.778Z,3.02
2022-09-21T08:44:45.859Z,4.08
2022-09-21T08:54:46.039Z,3.45
2022-09-21T09:04:46.129Z,4.32
2022-09-21T09:14:46.069Z,3.52
2022-09-21T09:24:45.958Z,5.85
2022-09-21T09:34:46.120Z,5.21
2022-09-21T09:44:46.029Z,4.70
2022-09-21T09:54:46.024Z,5.15
2022-09-21T10:04:46.204Z,5.41
2022-09-21T10:14:46.040Z,0.56
2022-09-21T10:24:46.001Z,0.00
2022-09-21T10:34:46.298Z,0.00
2022-09-21T10:44:46.017Z,0.00
2022-09-21T10:54:46.128Z,0.00
2022-09-21T11:04:46.200Z,0.01
2022-09-21T11:14:46.298Z,0.00
2022-09-21T11:24:46.319Z,0.00
2022-09-21T11:34:46.127Z,0.00
2022-09-21T11:44:46.237Z,0.00
2022-09-21T11:54:46.155Z,0.00
2022-09-21T12:04:46.290Z,0.00
2022-09-21T12:14:46.240Z,0.00
2022-09-21T12:24:46.163Z,0.00
2022-09-21T12:34:46.216Z,0.00
2022-09-21T12:44:46.112Z,0.00
2022-09-21T12:54:46.343Z,0.00
2022-09-21T13:04:46.362Z,0.00
2022-09-21T13:14:46.183Z,0.00
2022-09-21T13:24:46.158Z,0.00
2022-09-21T13:34:46.157Z,0.00
2022-09-21T13:44:46.230Z,0.00
2022-09-21T13:54:46.200Z,0.00
2022-09-21T14:04:46.149Z,0.00
2022-09-21T14:14:46.389Z,0.00
2022-09-21T14:24:46.257Z,0.00
2022-09-21T14:34:46.338Z,0.00
2022-09-21T14:44:46.533Z,0.00
2022-09-21T14:54:46.451Z,0.00
2022-09-21T15:04:46.605Z,0.00
2022-09-21T15:14:46.528Z,0.00
2022-09-21T15:24:46.394Z,0.00
2022-09-21T15:34:46.358Z,0.00
2022-09-21T15:44:46.343Z,0.00
2022-09-21T15:54:47.381Z,0.00
2022-09-21T16:04:46.419Z,5.61
2022-09-21T16:14:46.697Z,5.00
2022-09-21T16:24:46.487Z,2.28
2022-09-21T16:34:46.634Z,2.60
2022-09-21T16:44:46.476Z,2.27
2022-09-21T16:54:47.428Z,1.98
2022-09-21T17:04:46.488Z,1.06
2022-09-21T17:14:47.363Z,0.86
2022-09-21T17:24:50.711Z,0.00
2022-09-21T17:34:46.491Z,1.24
2022-09-21T17:44:46.514Z,1.50
2022-09-21T17:54:46.651Z,1.60
2022-09-21T18:04:46.549Z,0.76
2022-09-21T18:14:46.548Z,0.00
2022-09-21T18:24:46.618Z,0.04
2022-09-21T18:34:46.536Z,0.00
2022-09-21T18:44:47.682Z,0.00
2022-09-21T18:54:46.978Z,0.00
2022-09-21T19:04:46.951Z,0.00
2022-09-21T19:14:47.175Z,0.00
